sensor_id;sensor_type;location;lat;lon;timestamp;temperature;humidity
12682;DHT22;6405;59.208;18.216;2023-02-28T00:01:21;-2.30;99.90
12682;DHT22;6405;59.208;18.216;2023-02-28T00:03:46;-2.30;99.90
12682;DHT22;6405;59.208;18.216;2023-02-28T00:06:12;-2.40;99.90
12682;DHT22;6405;59.208;18.216;2023-02-28T00:08:38;-2.40;99.90
12682;DHT22;6405;59.208;18.216;2023-02-28T00:11:10;-2.40;99.90
12682;DHT22;6405;59.208;18.216;2023-02-28T00:13:39;-2.40;99.90
12682;DHT22;6405;59.208;18.216;2023-02-28T00:16:08;-2.40;99.90
12682;DHT22;6405;59.208;18.216;2023-02-28T00:18:34;-2.40;99.90
12682;DHT22;6405;59.208;18.216;2023-02-28T00:21:00;-2.40;99.90
12682;DHT22;6405;59.208;18.216;2023-02-28T00:23:26;-2.40;99.90
12682;DHT22;6405;59.208;18.216;2023-02-28T00:25:53;-2.40;99.90
12682;DHT22;6405;59.208;18.216;2023-02-28T00:28:19;-2.40;99.90
12682;DHT22;6405;59.208;18.216;2023-02-28T00:30:44;-2.40;99.90
12682;DHT22;6405;59.208;18.216;2023-02-28T00:33:11;-2.40;99.90
12682;DHT22;6405;59.208;18.216;2023-02-28T00:35:38;-2.40;99.90
12682;DHT22;6405;59.208;18.216;2023-02-28T00:38:03;-2.40;99.90
12682;DHT22;6405;59.208;18.216;2023-02-28T00:40:30;-2.40;99.90
12682;DHT22;6405;59.208;18.216;2023-02-28T00:42:55;-2.40;99.90
12682;DHT22;6405;59.208;18.216;2023-02-28T00:45:21;-2.40;99.90
12682;DHT22;6405;59.208;18.216;2023-02-28T00:47:46;-2.40;99.90
12682;DHT22;6405;59.208;18.216;2023-02-28T00:50:16;-2.30;99.90
12682;DHT22;6405;59.208;18.216;2023-02-28T00:52:42;-2.30;99.90
12682;DHT22;6405;59.208;18.216;2023-02-28T00:55:08;-2.20;99.90
12682;DHT22;6405;59.208;18.216;2023-02-28T00:57:33;-2.30;99.90
12682;DHT22;6405;59.208;18.216;2023-02-28T00:59:59;-2.30;99.90
12682;DHT22;6405;59.208;18.216;2023-02-28T01:02:25;-2.30;99.90
12682;DHT22;6405;59.208;18.216;2023-02-28T01:04:50;-2.30;99.90
12682;DHT22;6405;59.208;18.216;2023-02-28T01:07:16;-2.30;99.90
12682;DHT22;6405;59.208;18.216;2023-02-28T01:09:42;-2.30;99.90
12682;DHT22;6405;59.208;18.216;2023-02-28T01:12:08;-2.30;99.90
12682;DHT22;6405;59.208;18.216;2023-02-28T01:14:34;-2.30;99.90
12682;DHT22;6405;59.208;18.216;2023-02-28T01:17:01;-2.30;99.90
12682;DHT22;6405;59.208;18.216;2023-02-28T01:19:26;-2.10;99.90
12682;DHT22;6405;59.208;18.216;2023-02-28T01:21:52;-2.10;99.90
12682;DHT22;6405;59.208;18.216;2023-02-28T01:24:18;-2.00;99.90
12682;DHT22;6405;59.208;18.216;2023-02-28T01:26:44;-1.90;99.90
12682;DHT22;6405;59.208;18.216;2023-02-28T01:29:10;-1.90;99.90
12682;DHT22;6405;59.208;18.216;2023-02-28T01:31:35;-1.90;99.90
12682;DHT22;6405;59.208;18.216;2023-02-28T01:34:01;-1.80;99.90
12682;DHT22;6405;59.208;18.216;2023-02-28T01:36:27;-1.70;99.90
12682;DHT22;6405;59.208;18.216;2023-02-28T01:38:53;-1.80;99.90
12682;DHT22;6405;59.208;18.216;2023-02-28T01:41:26;-1.80;99.90
12682;DHT22;6405;59.208;18.216;2023-02-28T01:43:58;-1.80;99.90
12682;DHT22;6405;59.208;18.216;2023-02-28T01:46:24;-1.80;99.90
12682;DHT22;6405;59.208;18.216;2023-02-28T01:51:49;-1.90;99.90
12682;DHT22;6405;59.208;18.216;2023-02-28T01:54:25;-2.00;99.90
12682;DHT22;6405;59.208;18.216;2023-02-28T01:57:00;-2.00;99.90
12682;DHT22;6405;59.208;18.216;2023-02-28T01:59:35;-2.00;99.90
12682;DHT22;6405;59.208;18.216;2023-02-28T02:02:04;-2.10;99.90
12682;DHT22;6405;59.208;18.216;2023-02-28T02:04:40;-2.10;99.90
12682;DHT22;6405;59.208;18.216;2023-02-28T02:07:08;-2.20;99.90
12682;DHT22;6405;59.208;18.216;2023-02-28T02:09:34;-2.20;99.90
12682;DHT22;6405;59.208;18.216;2023-02-28T02:12:19;-2.30;99.90
12682;DHT22;6405;59.208;18.216;2023-02-28T02:17:43;-1.90;99.90
12682;DHT22;6405;59.208;18.216;2023-02-28T02:23:33;-2.00;99.90
12682;DHT22;6405;59.208;18.216;2023-02-28T02:26:16;-2.00;99.90
12682;DHT22;6405;59.208;18.216;2023-02-28T02:28:50;-1.90;99.90
12682;DHT22;6405;59.208;18.216;2023-02-28T02:31:51;-1.90;99.90
12682;DHT22;6405;59.208;18.216;2023-02-28T02:34:34;-2.00;99.90
12682;DHT22;6405;59.208;18.216;2023-02-28T02:45:26;-2.00;99.90
12682;DHT22;6405;59.208;18.216;2023-02-28T02:47:54;-2.10;99.90
12682;DHT22;6405;59.208;18.216;2023-02-28T02:50:30;-2.10;99.90
12682;DHT22;6405;59.208;18.216;2023-02-28T02:52:59;-2.10;99.90
12682;DHT22;6405;59.208;18.216;2023-02-28T02:55:25;-2.10;99.90
12682;DHT22;6405;59.208;18.216;2023-02-28T02:57:56;-2.20;99.90
12682;DHT22;6405;59.208;18.216;2023-02-28T03:00:28;-2.10;99.90
12682;DHT22;6405;59.208;18.216;2023-02-28T03:02:56;-2.20;99.90
12682;DHT22;6405;59.208;18.216;2023-02-28T03:05:41;-2.10;99.90
12682;DHT22;6405;59.208;18.216;2023-02-28T03:08:08;-2.10;99.90
12682;DHT22;6405;59.208;18.216;2023-02-28T03:10:43;-2.10;99.90
12682;DHT22;6405;59.208;18.216;2023-02-28T03:13:42;-2.10;99.90
12682;DHT22;6405;59.208;18.216;2023-02-28T03:21:45;-2.20;99.90
12682;DHT22;6405;59.208;18.216;2023-02-28T03:24:35;-2.20;99.90
12682;DHT22;6405;59.208;18.216;2023-02-28T03:27:15;-2.20;99.90
12682;DHT22;6405;59.208;18.216;2023-02-28T03:29:47;-2.30;99.90
12682;DHT22;6405;59.208;18.216;2023-02-28T03:32:24;-2.30;99.90
12682;DHT22;6405;59.208;18.216;2023-02-28T03:35:04;-2.30;99.90
12682;DHT22;6405;59.208;18.216;2023-02-28T03:37:33;-2.40;99.90
12682;DHT22;6405;59.208;18.216;2023-02-28T03:40:06;-2.40;99.90
12682;DHT22;6405;59.208;18.216;2023-02-28T03:42:36;-2.30;99.90
12682;DHT22;6405;59.208;18.216;2023-02-28T03:45:10;-2.30;99.90
12682;DHT22;6405;59.208;18.216;2023-02-28T03:47:51;-2.30;99.90
12682;DHT22;6405;59.208;18.216;2023-02-28T03:50:35;-2.30;99.90
12682;DHT22;6405;59.208;18.216;2023-02-28T03:53:13;-2.40;99.90
12682;DHT22;6405;59.208;18.216;2023-02-28T03:55:47;-2.30;99.90
12682;DHT22;6405;59.208;18.216;2023-02-28T03:58:43;-2.30;99.90
12682;DHT22;6405;59.208;18.216;2023-02-28T04:01:15;-2.30;99.90
12682;DHT22;6405;59.208;18.216;2023-02-28T04:03:42;-2.30;99.90
12682;DHT22;6405;59.208;18.216;2023-02-28T04:06:15;-2.30;99.90
12682;DHT22;6405;59.208;18.216;2023-02-28T04:08:41;-2.30;99.90
12682;DHT22;6405;59.208;18.216;2023-02-28T04:13:50;-2.30;99.90
12682;DHT22;6405;59.208;18.216;2023-02-28T04:16:16;-2.30;99.90
12682;DHT22;6405;59.208;18.216;2023-02-28T04:18:42;-2.30;99.90
12682;DHT22;6405;59.208;18.216;2023-02-28T04:21:11;-2.30;99.90
12682;DHT22;6405;59.208;18.216;2023-02-28T04:23:37;-2.30;99.90
12682;DHT22;6405;59.208;18.216;2023-02-28T04:26:03;-2.30;99.90
12682;DHT22;6405;59.208;18.216;2023-02-28T04:28:29;-2.30;99.90
12682;DHT22;6405;59.208;18.216;2023-02-28T04:31:02;-2.30;99.90
12682;DHT22;6405;59.208;18.216;2023-02-28T04:33:28;-2.40;99.90
12682;DHT22;6405;59.208;18.216;2023-02-28T04:36:08;-2.40;99.90
12682;DHT22;6405;59.208;18.216;2023-02-28T04:38:37;-2.30;99.90
12682;DHT22;6405;59.208;18.216;2023-02-28T04:41:04;-2.20;99.90
12682;DHT22;6405;59.208;18.216;2023-02-28T04:43:30;-2.10;99.90
12682;DHT22;6405;59.208;18.216;2023-02-28T04:45:57;-2.00;99.90
12682;DHT22;6405;59.208;18.216;2023-02-28T04:48:24;-2.10;99.90
12682;DHT22;6405;59.208;18.216;2023-02-28T04:50:50;-2.10;99.90
12682;DHT22;6405;59.208;18.216;2023-02-28T04:53:16;-2.00;99.90
12682;DHT22;6405;59.208;18.216;2023-02-28T04:55:42;-2.00;99.90
12682;DHT22;6405;59.208;18.216;2023-02-28T04:58:08;-2.10;99.90
12682;DHT22;6405;59.208;18.216;2023-02-28T05:00:34;-2.10;99.90
12682;DHT22;6405;59.208;18.216;2023-02-28T05:02:59;-2.10;99.90
12682;DHT22;6405;59.208;18.216;2023-02-28T05:05:25;-2.20;99.90
12682;DHT22;6405;59.208;18.216;2023-02-28T05:07:51;-2.20;99.90
12682;DHT22;6405;59.208;18.216;2023-02-28T05:10:17;-2.20;99.90
12682;DHT22;6405;59.208;18.216;2023-02-28T05:12:42;-2.30;99.90
12682;DHT22;6405;59.208;18.216;2023-02-28T05:15:13;-2.40;99.90
12682;DHT22;6405;59.208;18.216;2023-02-28T05:17:39;-2.40;99.90
12682;DHT22;6405;59.208;18.216;2023-02-28T05:20:06;-2.40;99.90
12682;DHT22;6405;59.208;18.216;2023-02-28T05:22:32;-2.30;99.90
12682;DHT22;6405;59.208;18.216;2023-02-28T05:24:58;-2.30;99.90
12682;DHT22;6405;59.208;18.216;2023-02-28T05:27:23;-2.30;99.90
12682;DHT22;6405;59.208;18.216;2023-02-28T05:29:49;-2.20;99.90
12682;DHT22;6405;59.208;18.216;2023-02-28T05:32:15;-2.20;99.90
12682;DHT22;6405;59.208;18.216;2023-02-28T05:34:41;-2.30;99.90
12682;DHT22;6405;59.208;18.216;2023-02-28T05:37:14;-2.30;99.90
12682;DHT22;6405;59.208;18.216;2023-02-28T05:39:41;-2.20;99.90
12682;DHT22;6405;59.208;18.216;2023-02-28T05:42:07;-2.30;99.90
12682;DHT22;6405;59.208;18.216;2023-02-28T05:44:33;-2.20;99.90
12682;DHT22;6405;59.208;18.216;2023-02-28T05:46:59;-2.20;99.90
12682;DHT22;6405;59.208;18.216;2023-02-28T05:49:24;-2.10;99.90
12682;DHT22;6405;59.208;18.216;2023-02-28T05:51:50;-2.10;99.90
12682;DHT22;6405;59.208;18.216;2023-02-28T05:54:16;-2.00;99.90
12682;DHT22;6405;59.208;18.216;2023-02-28T05:56:41;-2.00;99.90
12682;DHT22;6405;59.208;18.216;2023-02-28T05:59:09;-2.00;99.90
12682;DHT22;6405;59.208;18.216;2023-02-28T06:01:41;-2.00;99.90
12682;DHT22;6405;59.208;18.216;2023-02-28T06:04:09;-2.00;99.90
12682;DHT22;6405;59.208;18.216;2023-02-28T06:06:35;-2.00;99.90
12682;DHT22;6405;59.208;18.216;2023-02-28T06:09:05;-2.00;99.90
12682;DHT22;6405;59.208;18.216;2023-02-28T06:11:31;-1.90;99.90
12682;DHT22;6405;59.208;18.216;2023-02-28T06:13:57;-1.90;99.90
12682;DHT22;6405;59.208;18.216;2023-02-28T06:16:25;-1.90;99.90
12682;DHT22;6405;59.208;18.216;2023-02-28T06:18:51;-1.80;99.90
12682;DHT22;6405;59.208;18.216;2023-02-28T06:21:18;-1.80;99.90
12682;DHT22;6405;59.208;18.216;2023-02-28T06:23:43;-1.70;99.90
12682;DHT22;6405;59.208;18.216;2023-02-28T06:26:10;-1.60;99.90
12682;DHT22;6405;59.208;18.216;2023-02-28T06:28:36;-1.60;99.90
12682;DHT22;6405;59.208;18.216;2023-02-28T06:31:12;-1.60;99.90
12682;DHT22;6405;59.208;18.216;2023-02-28T06:33:39;-1.40;99.90
12682;DHT22;6405;59.208;18.216;2023-02-28T06:36:06;-1.30;99.90
12682;DHT22;6405;59.208;18.216;2023-02-28T06:38:33;-1.10;99.90
12682;DHT22;6405;59.208;18.216;2023-02-28T06:41:00;-1.00;99.90
12682;DHT22;6405;59.208;18.216;2023-02-28T06:43:28;-1.00;99.90
12682;DHT22;6405;59.208;18.216;2023-02-28T06:45:55;-0.90;99.90
12682;DHT22;6405;59.208;18.216;2023-02-28T06:48:22;-0.90;99.90
12682;DHT22;6405;59.208;18.216;2023-02-28T06:50:48;-0.90;99.90
12682;DHT22;6405;59.208;18.216;2023-02-28T06:53:13;-0.90;99.90
12682;DHT22;6405;59.208;18.216;2023-02-28T06:55:40;-0.70;99.90
12682;DHT22;6405;59.208;18.216;2023-02-28T06:58:06;-0.60;99.90
12682;DHT22;6405;59.208;18.216;2023-02-28T07:00:43;-0.60;99.90
12682;DHT22;6405;59.208;18.216;2023-02-28T07:03:10;-0.60;99.90
12682;DHT22;6405;59.208;18.216;2023-02-28T07:05:36;-0.50;99.90
12682;DHT22;6405;59.208;18.216;2023-02-28T07:08:03;-0.50;99.90
12682;DHT22;6405;59.208;18.216;2023-02-28T07:10:29;-0.40;99.90
12682;DHT22;6405;59.208;18.216;2023-02-28T07:12:55;-0.30;99.90
12682;DHT22;6405;59.208;18.216;2023-02-28T07:15:21;-0.20;99.90
12682;DHT22;6405;59.208;18.216;2023-02-28T07:17:46;-0.10;99.90
12682;DHT22;6405;59.208;18.216;2023-02-28T07:20:12;0.00;99.90
12682;DHT22;6405;59.208;18.216;2023-02-28T07:22:38;0.10;99.90
12682;DHT22;6405;59.208;18.216;2023-02-28T07:25:04;0.20;99.90
12682;DHT22;6405;59.208;18.216;2023-02-28T07:27:30;0.20;99.90
12682;DHT22;6405;59.208;18.216;2023-02-28T07:29:56;0.30;99.90
12682;DHT22;6405;59.208;18.216;2023-02-28T07:32:22;0.40;99.90
12682;DHT22;6405;59.208;18.216;2023-02-28T07:34:47;0.40;99.90
12682;DHT22;6405;59.208;18.216;2023-02-28T07:37:14;0.40;99.90
12682;DHT22;6405;59.208;18.216;2023-02-28T07:39:40;0.50;99.90
12682;DHT22;6405;59.208;18.216;2023-02-28T07:42:08;0.50;99.90
12682;DHT22;6405;59.208;18.216;2023-02-28T07:44:36;0.60;99.90
12682;DHT22;6405;59.208;18.216;2023-02-28T07:47:07;0.70;99.90
12682;DHT22;6405;59.208;18.216;2023-02-28T07:49:33;0.70;99.90
12682;DHT22;6405;59.208;18.216;2023-02-28T07:51:59;0.70;99.90
12682;DHT22;6405;59.208;18.216;2023-02-28T07:54:24;0.80;99.90
12682;DHT22;6405;59.208;18.216;2023-02-28T07:56:50;0.80;99.90
12682;DHT22;6405;59.208;18.216;2023-02-28T07:59:15;0.90;99.90
12682;DHT22;6405;59.208;18.216;2023-02-28T08:01:41;1.00;99.90
12682;DHT22;6405;59.208;18.216;2023-02-28T08:04:07;1.10;99.90
12682;DHT22;6405;59.208;18.216;2023-02-28T08:06:32;1.30;99.90
12682;DHT22;6405;59.208;18.216;2023-02-28T08:08:58;1.50;99.90
12682;DHT22;6405;59.208;18.216;2023-02-28T08:11:23;1.50;99.90
12682;DHT22;6405;59.208;18.216;2023-02-28T08:13:49;1.50;99.90
12682;DHT22;6405;59.208;18.216;2023-02-28T08:16:15;1.50;99.90
12682;DHT22;6405;59.208;18.216;2023-02-28T08:18:43;1.60;99.90
12682;DHT22;6405;59.208;18.216;2023-02-28T08:21:10;1.70;99.90
12682;DHT22;6405;59.208;18.216;2023-02-28T08:23:35;1.70;99.90
12682;DHT22;6405;59.208;18.216;2023-02-28T08:26:01;1.80;99.90
12682;DHT22;6405;59.208;18.216;2023-02-28T08:28:27;1.90;99.90
12682;DHT22;6405;59.208;18.216;2023-02-28T08:30:53;2.00;99.90
12682;DHT22;6405;59.208;18.216;2023-02-28T08:33:19;2.10;99.90
12682;DHT22;6405;59.208;18.216;2023-02-28T08:35:45;2.30;99.90
12682;DHT22;6405;59.208;18.216;2023-02-28T08:38:10;2.40;99.90
12682;DHT22;6405;59.208;18.216;2023-02-28T08:40:36;2.60;99.90
12682;DHT22;6405;59.208;18.216;2023-02-28T08:43:02;2.70;99.90
12682;DHT22;6405;59.208;18.216;2023-02-28T08:45:27;2.90;99.90
12682;DHT22;6405;59.208;18.216;2023-02-28T08:47:54;3.00;99.90
12682;DHT22;6405;59.208;18.216;2023-02-28T08:50:21;3.10;99.90
12682;DHT22;6405;59.208;18.216;2023-02-28T08:52:47;3.20;99.90
12682;DHT22;6405;59.208;18.216;2023-02-28T08:55:12;3.20;99.90
12682;DHT22;6405;59.208;18.216;2023-02-28T08:57:38;3.20;99.90
12682;DHT22;6405;59.208;18.216;2023-02-28T09:00:04;3.30;99.90
12682;DHT22;6405;59.208;18.216;2023-02-28T09:02:33;3.30;99.90
12682;DHT22;6405;59.208;18.216;2023-02-28T09:04:58;3.30;99.90
12682;DHT22;6405;59.208;18.216;2023-02-28T09:07:25;3.30;99.90
12682;DHT22;6405;59.208;18.216;2023-02-28T09:09:51;3.40;99.90
12682;DHT22;6405;59.208;18.216;2023-02-28T09:12:24;3.40;99.90
12682;DHT22;6405;59.208;18.216;2023-02-28T09:14:51;3.40;99.90
12682;DHT22;6405;59.208;18.216;2023-02-28T09:17:17;3.40;99.90
12682;DHT22;6405;59.208;18.216;2023-02-28T09:19:43;3.50;99.90
12682;DHT22;6405;59.208;18.216;2023-02-28T09:22:10;3.60;99.90
12682;DHT22;6405;59.208;18.216;2023-02-28T09:24:38;3.60;99.90
12682;DHT22;6405;59.208;18.216;2023-02-28T09:27:04;3.70;99.90
12682;DHT22;6405;59.208;18.216;2023-02-28T09:29:32;3.80;99.90
12682;DHT22;6405;59.208;18.216;2023-02-28T09:31:58;3.90;99.90
12682;DHT22;6405;59.208;18.216;2023-02-28T09:34:25;3.90;99.90
12682;DHT22;6405;59.208;18.216;2023-02-28T09:36:50;4.00;99.90
12682;DHT22;6405;59.208;18.216;2023-02-28T09:39:21;4.00;99.90
12682;DHT22;6405;59.208;18.216;2023-02-28T09:41:50;4.10;99.90
12682;DHT22;6405;59.208;18.216;2023-02-28T09:44:43;4.20;99.90
12682;DHT22;6405;59.208;18.216;2023-02-28T09:47:27;4.30;99.90
12682;DHT22;6405;59.208;18.216;2023-02-28T09:49:53;4.50;99.90
12682;DHT22;6405;59.208;18.216;2023-02-28T09:52:27;4.50;99.90
12682;DHT22;6405;59.208;18.216;2023-02-28T09:54:53;4.80;99.90
12682;DHT22;6405;59.208;18.216;2023-02-28T10:05:15;5.10;99.90
12682;DHT22;6405;59.208;18.216;2023-02-28T10:07:59;5.20;99.90
12682;DHT22;6405;59.208;18.216;2023-02-28T10:10:37;5.30;99.90
12682;DHT22;6405;59.208;18.216;2023-02-28T10:13:35;5.40;99.90
12682;DHT22;6405;59.208;18.216;2023-02-28T10:16:12;5.40;99.90
12682;DHT22;6405;59.208;18.216;2023-02-28T10:18:47;5.40;99.90
12682;DHT22;6405;59.208;18.216;2023-02-28T10:21:26;5.60;99.90
12682;DHT22;6405;59.208;18.216;2023-02-28T10:24:04;5.50;99.90
12682;DHT22;6405;59.208;18.216;2023-02-28T10:26:33;5.50;99.90
12682;DHT22;6405;59.208;18.216;2023-02-28T10:28:59;5.50;99.90
12682;DHT22;6405;59.208;18.216;2023-02-28T10:31:25;5.60;99.90
12682;DHT22;6405;59.208;18.216;2023-02-28T10:33:51;5.70;99.90
12682;DHT22;6405;59.208;18.216;2023-02-28T10:36:19;5.70;99.90
12682;DHT22;6405;59.208;18.216;2023-02-28T10:38:47;5.70;99.90
12682;DHT22;6405;59.208;18.216;2023-02-28T10:43:52;5.70;99.90
12682;DHT22;6405;59.208;18.216;2023-02-28T10:46:22;5.60;99.90
12682;DHT22;6405;59.208;18.216;2023-02-28T10:49:17;5.60;99.90
12682;DHT22;6405;59.208;18.216;2023-02-28T10:51:45;5.60;99.90
12682;DHT22;6405;59.208;18.216;2023-02-28T10:54:19;5.50;99.90
12682;DHT22;6405;59.208;18.216;2023-02-28T10:56:45;5.50;99.90
12682;DHT22;6405;59.208;18.216;2023-02-28T10:59:29;5.60;99.90
12682;DHT22;6405;59.208;18.216;2023-02-28T11:01:55;5.60;99.90
12682;DHT22;6405;59.208;18.216;2023-02-28T11:07:02;5.80;99.90
12682;DHT22;6405;59.208;18.216;2023-02-28T11:09:36;5.80;99.90
12682;DHT22;6405;59.208;18.216;2023-02-28T11:12:19;5.80;99.90
12682;DHT22;6405;59.208;18.216;2023-02-28T11:14:51;5.90;99.90
12682;DHT22;6405;59.208;18.216;2023-02-28T11:17:27;6.00;99.90
12682;DHT22;6405;59.208;18.216;2023-02-28T11:19:59;6.00;99.90
12682;DHT22;6405;59.208;18.216;2023-02-28T11:22:31;6.00;99.90
12682;DHT22;6405;59.208;18.216;2023-02-28T11:25:00;6.10;99.90
12682;DHT22;6405;59.208;18.216;2023-02-28T11:29:56;6.20;99.90
12682;DHT22;6405;59.208;18.216;2023-02-28T11:32:23;6.30;99.90
12682;DHT22;6405;59.208;18.216;2023-02-28T11:37:38;6.50;99.90
12682;DHT22;6405;59.208;18.216;2023-02-28T11:40:18;6.50;99.90
12682;DHT22;6405;59.208;18.216;2023-02-28T11:45:55;6.70;99.90
12682;DHT22;6405;59.208;18.216;2023-02-28T11:48:30;6.80;99.90
12682;DHT22;6405;59.208;18.216;2023-02-28T11:51:09;6.80;99.90
12682;DHT22;6405;59.208;18.216;2023-02-28T11:56:42;6.80;99.90
12682;DHT22;6405;59.208;18.216;2023-02-28T12:02:25;6.70;99.90
12682;DHT22;6405;59.208;18.216;2023-02-28T12:10:29;6.60;99.90
12682;DHT22;6405;59.208;18.216;2023-02-28T12:13:12;6.60;99.90
12682;DHT22;6405;59.208;18.216;2023-02-28T12:16:11;6.60;99.90
12682;DHT22;6405;59.208;18.216;2023-02-28T12:19:10;6.60;99.90
12682;DHT22;6405;59.208;18.216;2023-02-28T12:21:55;6.60;99.90
12682;DHT22;6405;59.208;18.216;2023-02-28T12:27:34;6.60;99.90
12682;DHT22;6405;59.208;18.216;2023-02-28T12:30:06;6.70;99.90
12682;DHT22;6405;59.208;18.216;2023-02-28T12:32:44;6.90;99.90
12682;DHT22;6405;59.208;18.216;2023-02-28T12:35:18;7.00;99.90
12682;DHT22;6405;59.208;18.216;2023-02-28T12:38:02;7.00;99.90
12682;DHT22;6405;59.208;18.216;2023-02-28T12:40:41;7.10;99.90
12682;DHT22;6405;59.208;18.216;2023-02-28T12:43:08;7.20;99.90
12682;DHT22;6405;59.208;18.216;2023-02-28T12:45:43;7.20;99.90
12682;DHT22;6405;59.208;18.216;2023-02-28T12:48:20;7.20;99.90
12682;DHT22;6405;59.208;18.216;2023-02-28T12:50:48;7.20;99.90
12682;DHT22;6405;59.208;18.216;2023-02-28T12:53:25;7.30;99.90
12682;DHT22;6405;59.208;18.216;2023-02-28T12:56:17;7.30;99.90
12682;DHT22;6405;59.208;18.216;2023-02-28T12:58:53;7.30;99.90
12682;DHT22;6405;59.208;18.216;2023-02-28T13:01:28;7.30;99.90
12682;DHT22;6405;59.208;18.216;2023-02-28T13:07:16;7.10;99.90
12682;DHT22;6405;59.208;18.216;2023-02-28T13:09:59;7.00;99.90
12682;DHT22;6405;59.208;18.216;2023-02-28T13:12:25;7.00;99.90
12682;DHT22;6405;59.208;18.216;2023-02-28T13:15:08;6.90;99.90
12682;DHT22;6405;59.208;18.216;2023-02-28T13:17:41;6.80;99.90
12682;DHT22;6405;59.208;18.216;2023-02-28T13:20:34;6.80;99.90
12682;DHT22;6405;59.208;18.216;2023-02-28T13:23:00;6.80;99.90
12682;DHT22;6405;59.208;18.216;2023-02-28T13:28:00;6.70;99.90
12682;DHT22;6405;59.208;18.216;2023-02-28T13:33:29;6.70;99.90
12682;DHT22;6405;59.208;18.216;2023-02-28T13:38:41;6.60;99.90
12682;DHT22;6405;59.208;18.216;2023-02-28T13:44:06;6.80;99.90
12682;DHT22;6405;59.208;18.216;2023-02-28T13:46:34;6.80;99.90
12682;DHT22;6405;59.208;18.216;2023-02-28T13:51:53;6.70;99.90
12682;DHT22;6405;59.208;18.216;2023-02-28T13:58:03;6.70;99.90
12682;DHT22;6405;59.208;18.216;2023-02-28T14:06:40;6.50;99.90
12682;DHT22;6405;59.208;18.216;2023-02-28T14:11:42;6.20;99.90
12682;DHT22;6405;59.208;18.216;2023-02-28T14:16:56;6.20;99.90
12682;DHT22;6405;59.208;18.216;2023-02-28T14:19:28;6.20;99.90
12682;DHT22;6405;59.208;18.216;2023-02-28T14:25:07;6.10;99.90
12682;DHT22;6405;59.208;18.216;2023-02-28T14:30:43;6.20;99.90
12682;DHT22;6405;59.208;18.216;2023-02-28T14:38:53;6.10;99.90
12682;DHT22;6405;59.208;18.216;2023-02-28T14:41:24;6.10;99.90
12682;DHT22;6405;59.208;18.216;2023-02-28T14:43:56;6.00;99.90
12682;DHT22;6405;59.208;18.216;2023-02-28T14:46:26;6.00;99.90
12682;DHT22;6405;59.208;18.216;2023-02-28T14:48:54;6.00;99.90
12682;DHT22;6405;59.208;18.216;2023-02-28T14:51:22;6.00;99.90
12682;DHT22;6405;59.208;18.216;2023-02-28T14:53:53;6.00;99.90
12682;DHT22;6405;59.208;18.216;2023-02-28T14:56:30;5.90;99.90
12682;DHT22;6405;59.208;18.216;2023-02-28T14:58:58;5.90;99.90
12682;DHT22;6405;59.208;18.216;2023-02-28T15:01:24;5.90;99.90
12682;DHT22;6405;59.208;18.216;2023-02-28T15:03:59;5.90;99.90
12682;DHT22;6405;59.208;18.216;2023-02-28T15:06:24;5.90;99.90
12682;DHT22;6405;59.208;18.216;2023-02-28T15:09:07;5.80;99.90
12682;DHT22;6405;59.208;18.216;2023-02-28T15:11:33;5.70;99.90
12682;DHT22;6405;59.208;18.216;2023-02-28T15:14:00;5.70;99.90
12682;DHT22;6405;59.208;18.216;2023-02-28T15:16:38;5.60;99.90
12682;DHT22;6405;59.208;18.216;2023-02-28T15:19:12;5.60;99.90
12682;DHT22;6405;59.208;18.216;2023-02-28T15:21:44;5.60;99.90
12682;DHT22;6405;59.208;18.216;2023-02-28T15:24:30;5.50;99.90
12682;DHT22;6405;59.208;18.216;2023-02-28T15:26:59;5.50;99.90
12682;DHT22;6405;59.208;18.216;2023-02-28T15:29:27;5.40;99.90
12682;DHT22;6405;59.208;18.216;2023-02-28T15:32:03;5.50;99.90
12682;DHT22;6405;59.208;18.216;2023-02-28T15:34:35;5.30;99.90
12682;DHT22;6405;59.208;18.216;2023-02-28T15:37:01;5.30;99.90
12682;DHT22;6405;59.208;18.216;2023-02-28T15:39:28;5.10;99.90
12682;DHT22;6405;59.208;18.216;2023-02-28T15:42:21;4.90;99.90
12682;DHT22;6405;59.208;18.216;2023-02-28T15:44:48;4.80;99.90
12682;DHT22;6405;59.208;18.216;2023-02-28T15:47:27;4.80;99.90
12682;DHT22;6405;59.208;18.216;2023-02-28T15:49:58;4.70;99.90
12682;DHT22;6405;59.208;18.216;2023-02-28T15:52:38;4.50;99.90
12682;DHT22;6405;59.208;18.216;2023-02-28T15:57:39;4.40;99.90
12682;DHT22;6405;59.208;18.216;2023-02-28T16:00:11;4.20;99.90
12682;DHT22;6405;59.208;18.216;2023-02-28T16:02:38;4.10;99.90
12682;DHT22;6405;59.208;18.216;2023-02-28T16:07:39;3.80;99.90
12682;DHT22;6405;59.208;18.216;2023-02-28T16:10:06;3.80;99.90
12682;DHT22;6405;59.208;18.216;2023-02-28T16:12:34;3.80;99.90
12682;DHT22;6405;59.208;18.216;2023-02-28T16:15:08;3.80;99.90
12682;DHT22;6405;59.208;18.216;2023-02-28T16:17:37;3.70;99.90
12682;DHT22;6405;59.208;18.216;2023-02-28T16:20:13;3.60;99.90
12682;DHT22;6405;59.208;18.216;2023-02-28T16:22:39;3.40;99.90
12682;DHT22;6405;59.208;18.216;2023-02-28T16:25:05;3.20;99.90
12682;DHT22;6405;59.208;18.216;2023-02-28T16:27:36;3.10;99.90
12682;DHT22;6405;59.208;18.216;2023-02-28T16:30:04;2.90;99.90
12682;DHT22;6405;59.208;18.216;2023-02-28T16:32:31;3.00;99.90
12682;DHT22;6405;59.208;18.216;2023-02-28T16:34:59;2.70;99.90
12682;DHT22;6405;59.208;18.216;2023-02-28T16:37:25;2.60;99.90
12682;DHT22;6405;59.208;18.216;2023-02-28T16:39:52;2.50;99.90
12682;DHT22;6405;59.208;18.216;2023-02-28T16:42:23;2.40;99.90
12682;DHT22;6405;59.208;18.216;2023-02-28T16:44:51;2.30;99.90
12682;DHT22;6405;59.208;18.216;2023-02-28T16:47:17;2.20;99.90
12682;DHT22;6405;59.208;18.216;2023-02-28T16:49:43;2.20;99.90
12682;DHT22;6405;59.208;18.216;2023-02-28T16:52:10;2.10;99.90
12682;DHT22;6405;59.208;18.216;2023-02-28T16:54:37;2.00;99.90
12682;DHT22;6405;59.208;18.216;2023-02-28T16:57:04;1.90;99.90
12682;DHT22;6405;59.208;18.216;2023-02-28T16:59:31;1.80;99.90
12682;DHT22;6405;59.208;18.216;2023-02-28T17:01:57;1.80;99.90
12682;DHT22;6405;59.208;18.216;2023-02-28T17:04:27;1.70;99.90
12682;DHT22;6405;59.208;18.216;2023-02-28T17:06:52;1.60;99.90
12682;DHT22;6405;59.208;18.216;2023-02-28T17:09:22;1.50;99.90
12682;DHT22;6405;59.208;18.216;2023-02-28T17:11:49;1.50;99.90
12682;DHT22;6405;59.208;18.216;2023-02-28T17:14:15;1.50;99.90
12682;DHT22;6405;59.208;18.216;2023-02-28T17:16:41;1.40;99.90
12682;DHT22;6405;59.208;18.216;2023-02-28T17:19:12;1.30;99.90
12682;DHT22;6405;59.208;18.216;2023-02-28T17:21:39;1.20;99.90
12682;DHT22;6405;59.208;18.216;2023-02-28T17:24:07;1.20;99.90
12682;DHT22;6405;59.208;18.216;2023-02-28T17:26:33;1.20;99.90
12682;DHT22;6405;59.208;18.216;2023-02-28T17:28:59;1.10;99.90
12682;DHT22;6405;59.208;18.216;2023-02-28T17:31:26;1.10;99.90
12682;DHT22;6405;59.208;18.216;2023-02-28T17:33:52;1.00;99.90
12682;DHT22;6405;59.208;18.216;2023-02-28T17:36:24;1.00;99.90
12682;DHT22;6405;59.208;18.216;2023-02-28T17:38:52;0.90;99.90
12682;DHT22;6405;59.208;18.216;2023-02-28T17:41:18;0.80;99.90
12682;DHT22;6405;59.208;18.216;2023-02-28T17:43:44;0.80;99.90
12682;DHT22;6405;59.208;18.216;2023-02-28T17:46:21;0.70;99.90
12682;DHT22;6405;59.208;18.216;2023-02-28T17:48:48;0.70;99.90